LA HONDA (LAH)

Elevation: 425' · SAN GREGORIO CR basin · Operator: CAL FIRE

Query executed Friday at 21:23:43   clock

Provisional data, subject to change.
Select a sensor type for a plot of data.

Earlier

Date   /   Time   RAIN     TEMP     REL HUM     FUEL MS     FUEL TP     WIND SP     WIND DR     PEAK WS     PEAK WD     SOLAR R     BAT VOL    
(PDT)INCHES   DEG F   %   %   DEG F   MPH   DEG   MPH   DEG   W/M^2   VOLTS  
07/31/2014 21:00 0.00 60 78 8 56 1 283 3 293 2.00 13.0
07/31/2014 22:00 0.00 59 84 9 54 1 301 5 93 0.00 12.9
07/31/2014 23:00 0.00 58 85 10 54 1 95 4 86 0.00 12.9
08/01/2014 00:00 0.00 56 86 12 52 0 52 0 0 0.00 12.8
08/01/2014 01:00 0.00 56 84 13 53 0 273 4 68 0.00 12.8
08/01/2014 02:00 0.00 54 91 15 51 1 79 4 98 0.00 12.8
08/01/2014 03:00 0.00 53 88 16 49 0 259 4 96 0.00 12.8
08/01/2014 04:00 0.00 51 91 17 47 0 301 4 100 0.00 12.7
08/01/2014 05:00 0.00 50 95 18 47 1 324 4 84 0.00 12.7
08/01/2014 06:00 0.00 50 90 19 46 0 38 4 88 0.00 12.7
08/01/2014 07:00 0.00 51 75 20 46 2 283 4 75 11.00 12.7
08/01/2014 08:00 0.00 57 84 21 57 3 244 4 243 187.00 13.4
08/01/2014 09:00 0.00 65 72 18 68 3 258 4 244 367.00 14.0
08/01/2014 10:00 0.00 71 60 14 77 5 236 7 245 543.00 13.8
08/01/2014 11:00 0.00 77 51 11 87 3 262 7 236 699.00 13.6
08/01/2014 12:00 0.00 82 45 9 100 4 262 8 271 815.00 13.5
08/01/2014 13:00 0.00 86 42 7 110 3 265 7 237 884.00 13.5
08/01/2014 14:00 0.00 86 40 6 112 4 253 10 225 898.00 13.4
08/01/2014 15:00 0.00 85 39 5 106 5 245 8 214 853.00 13.4
08/01/2014 16:00 0.00 83 39 6 102 4 251 9 217 755.00 13.4
08/01/2014 17:00 0.00 82 43 6 99 4 248 9 235 614.00 13.4
08/01/2014 18:00 0.00 83 43 6 88 3 256 7 247 442.00 13.8
08/01/2014 19:00 0.00 73 54 6 71 2 273 7 220 50.00 13.4
08/01/2014 20:00 0.00 63 68 7 62 1 270 5 253 24.00 13.2
08/01/2014 21:00 -- -- -- -- -- -- -- -- -- -- --

Later | Latest

Warning! This data is preliminary and subject to revision.

Download Data Now Download Data Now | Show LAH Map | 24 Hours LAH Data | Plot all LAH Sensors | Daily LAH Data | LAH Info